createdAt,value
2017-07-19T00:01:20.754Z,13.97
2017-07-19T00:03:47.043Z,16.33
2017-07-19T00:06:14.060Z,9.13
2017-07-19T00:08:40.354Z,18.57
2017-07-19T00:11:21.627Z,12.10
2017-07-19T00:13:48.462Z,13.70
2017-07-19T00:16:14.727Z,15.10
2017-07-19T00:18:41.007Z,13.23
2017-07-19T00:21:07.299Z,11.60
2017-07-19T00:23:33.554Z,10.70
2017-07-19T00:25:59.843Z,9.27
2017-07-19T00:28:26.846Z,15.23
2017-07-19T00:30:53.103Z,9.70
2017-07-19T00:33:19.414Z,15.53
2017-07-19T00:35:45.674Z,10.13
2017-07-19T00:38:11.955Z,12.90
2017-07-19T00:40:38.404Z,9.07
2017-07-19T00:43:04.654Z,12.67
2017-07-19T00:45:30.917Z,5.87
2017-07-19T00:47:57.193Z,17.47
2017-07-19T00:50:23.448Z,11.47
2017-07-19T00:52:49.719Z,9.43
2017-07-19T00:55:16.810Z,24.23
2017-07-19T00:57:43.071Z,13.40
2017-07-19T01:00:09.331Z,12.40
2017-07-19T01:02:35.835Z,16.00
2017-07-19T01:05:02.095Z,14.90
2017-07-19T01:07:28.371Z,11.67
2017-07-19T01:09:54.642Z,11.03
2017-07-19T01:12:23.039Z,11.37
2017-07-19T01:14:50.363Z,8.30
2017-07-19T01:17:18.167Z,17.33
2017-07-19T01:19:44.427Z,9.40
2017-07-19T01:22:10.716Z,15.60
2017-07-19T01:24:37.004Z,8.23
2017-07-19T01:27:03.337Z,9.87
2017-07-19T01:29:30.323Z,15.23
2017-07-19T01:31:57.381Z,11.20
2017-07-19T01:34:24.398Z,12.73
2017-07-19T01:36:50.799Z,8.67
2017-07-19T01:39:17.226Z,10.80
2017-07-19T01:41:43.504Z,11.83
2017-07-19T01:44:09.771Z,9.57
2017-07-19T01:46:36.241Z,10.53
2017-07-19T01:49:02.492Z,7.23
2017-07-19T01:51:28.811Z,8.73
2017-07-19T01:53:55.107Z,10.80
2017-07-19T01:56:22.121Z,13.87
2017-07-19T01:58:48.395Z,11.33
2017-07-19T02:01:14.870Z,13.63
2017-07-19T02:03:41.131Z,13.10
2017-07-19T02:06:07.383Z,11.07
2017-07-19T02:08:33.691Z,9.63
2017-07-19T02:10:59.971Z,8.10
2017-07-19T02:13:27.682Z,11.87
2017-07-19T02:15:54.839Z,12.57
2017-07-19T02:18:21.101Z,13.37
2017-07-19T02:20:47.355Z,9.90
2017-07-19T02:23:14.159Z,10.10
2017-07-19T02:25:40.444Z,11.73
2017-07-19T02:28:06.705Z,13.17
2017-07-19T02:30:32.963Z,12.67
2017-07-19T02:32:59.227Z,12.33
2017-07-19T02:35:25.520Z,10.17
2017-07-19T02:37:52.688Z,18.83
2017-07-19T02:40:18.992Z,17.30
2017-07-19T02:42:46.042Z,13.13
2017-07-19T02:45:12.403Z,7.87
2017-07-19T02:47:38.662Z,15.43
2017-07-19T02:50:04.936Z,11.57
2017-07-19T02:52:31.432Z,11.77
2017-07-19T02:54:57.701Z,9.13
2017-07-19T02:57:23.936Z,16.50
2017-07-19T02:59:50.174Z,7.33
2017-07-19T03:02:16.383Z,14.40
2017-07-19T03:04:42.625Z,17.63
2017-07-19T03:07:10.572Z,16.37
2017-07-19T03:09:37.531Z,12.10
2017-07-19T03:12:03.772Z,14.17
2017-07-19T03:14:33.252Z,15.20
2017-07-19T03:17:01.118Z,14.00
2017-07-19T03:19:27.375Z,9.07
2017-07-19T03:21:54.529Z,9.20
2017-07-19T03:24:21.501Z,12.03
2017-07-19T03:26:47.749Z,8.10
2017-07-19T03:29:15.084Z,12.37
2017-07-19T03:31:41.313Z,12.80
2017-07-19T03:34:07.561Z,13.43
2017-07-19T03:36:33.807Z,8.97
2017-07-19T03:39:00.069Z,10.53
2017-07-19T03:41:26.303Z,14.30
2017-07-19T03:43:52.541Z,16.23
2017-07-19T03:46:18.780Z,9.63
2017-07-19T03:48:44.982Z,9.13
2017-07-19T03:51:14.555Z,11.50
2017-07-19T03:53:41.525Z,14.13
2017-07-19T03:56:07.759Z,11.30
2017-07-19T03:58:34.041Z,13.03
2017-07-19T04:01:00.288Z,9.43
2017-07-19T04:03:27.289Z,12.03
2017-07-19T04:05:53.559Z,8.00
2017-07-19T04:08:19.797Z,11.57
2017-07-19T04:10:46.097Z,12.97
2017-07-19T04:13:13.468Z,12.30
2017-07-19T04:15:42.777Z,12.23
2017-07-19T04:18:12.237Z,15.73
2017-07-19T04:20:39.222Z,12.30
2017-07-19T04:23:05.448Z,14.87
2017-07-19T04:25:31.705Z,10.70
2017-07-19T04:27:57.925Z,13.53
2017-07-19T04:30:24.146Z,8.63
2017-07-19T04:32:52.106Z,12.03
2017-07-19T04:35:19.084Z,14.07
2017-07-19T04:37:45.301Z,8.77
2017-07-19T04:40:12.306Z,9.47
2017-07-19T04:42:38.550Z,14.23
2017-07-19T04:45:04.789Z,15.73
2017-07-19T04:47:31.345Z,9.70
2017-07-19T04:49:57.578Z,10.00
2017-07-19T04:52:23.830Z,13.10
2017-07-19T04:54:51.614Z,11.73
2017-07-19T04:57:17.864Z,7.87
2017-07-19T04:59:44.113Z,7.77
2017-07-19T05:02:10.366Z,8.93
2017-07-19T05:04:36.577Z,10.37
2017-07-19T05:07:02.805Z,11.47
2017-07-19T05:09:29.177Z,10.23
2017-07-19T05:11:55.457Z,6.37
2017-07-19T05:14:21.688Z,9.80
2017-07-19T05:16:49.453Z,7.57
2017-07-19T05:19:16.782Z,14.80
2017-07-19T05:21:43.781Z,11.10
2017-07-19T05:24:10.053Z,10.00
2017-07-19T05:26:36.288Z,15.17
2017-07-19T05:29:02.508Z,17.27
2017-07-19T05:31:28.847Z,11.53
2017-07-19T05:33:55.092Z,11.97
2017-07-19T05:36:21.313Z,6.10
2017-07-19T05:38:47.905Z,8.20
2017-07-19T05:41:14.876Z,18.20
2017-07-19T05:43:41.137Z,13.07
2017-07-19T05:46:07.396Z,9.43
2017-07-19T05:48:33.641Z,10.60
2017-07-19T05:51:00.618Z,11.10
2017-07-19T05:53:27.609Z,6.40
2017-07-19T05:55:53.836Z,11.03
2017-07-19T05:58:20.081Z,16.20
2017-07-19T06:00:47.184Z,6.70
2017-07-19T06:03:14.166Z,6.53
2017-07-19T06:05:40.395Z,8.27
2017-07-19T06:08:06.661Z,19.80
2017-07-19T06:10:32.903Z,11.23
2017-07-19T06:12:59.137Z,12.17
2017-07-19T06:15:26.258Z,8.60
2017-07-19T06:17:53.975Z,13.10
2017-07-19T06:20:21.557Z,9.27
2017-07-19T06:22:48.925Z,8.17
2017-07-19T06:25:15.905Z,15.37
2017-07-19T06:27:42.132Z,9.03
2017-07-19T06:30:08.397Z,14.03
2017-07-19T06:32:34.648Z,12.83
2017-07-19T06:35:00.890Z,14.73
2017-07-19T06:37:27.136Z,6.17
2017-07-19T06:39:53.366Z,12.67
2017-07-19T06:42:19.592Z,9.50
2017-07-19T06:44:45.879Z,7.23
2017-07-19T06:47:12.837Z,10.30
2017-07-19T06:49:39.068Z,9.00
2017-07-19T06:52:05.373Z,8.03
2017-07-19T06:54:32.401Z,12.53
2017-07-19T06:56:58.645Z,7.33
2017-07-19T06:59:24.880Z,8.57
2017-07-19T07:01:51.125Z,18.00
2017-07-19T07:04:17.385Z,7.33
2017-07-19T07:06:45.146Z,6.13
2017-07-19T07:09:11.403Z,10.13
2017-07-19T07:11:37.632Z,9.53
2017-07-19T07:14:03.993Z,12.60
2017-07-19T07:16:30.272Z,13.23
2017-07-19T07:18:57.929Z,10.37
2017-07-19T07:21:24.789Z,7.47
2017-07-19T07:23:51.066Z,9.00
2017-07-19T07:26:17.324Z,5.80
2017-07-19T07:28:43.625Z,10.37
2017-07-19T07:31:09.861Z,7.90
2017-07-19T07:33:36.113Z,9.23
2017-07-19T07:36:02.937Z,8.70
2017-07-19T07:38:29.913Z,12.80
2017-07-19T07:40:56.124Z,7.67
2017-07-19T07:43:22.378Z,8.20
2017-07-19T07:45:48.593Z,11.13
2017-07-19T07:48:14.825Z,6.10
2017-07-19T07:50:41.157Z,12.33
2017-07-19T07:53:07.407Z,10.23
2017-07-19T07:55:33.645Z,6.00
2017-07-19T07:57:59.927Z,11.80
2017-07-19T08:00:26.217Z,6.83
2017-07-19T08:02:52.456Z,8.30
2017-07-19T08:05:18.721Z,7.83
2017-07-19T08:07:44.961Z,11.50
2017-07-19T08:10:11.970Z,12.37
2017-07-19T08:12:38.602Z,9.23
2017-07-19T08:15:04.876Z,6.57
2017-07-19T08:17:31.184Z,8.30
2017-07-19T08:19:59.089Z,12.20
2017-07-19T08:22:26.157Z,11.17
2017-07-19T08:24:52.413Z,7.33
2017-07-19T08:27:19.445Z,9.53
2017-07-19T08:29:45.705Z,8.63
2017-07-19T08:32:12.680Z,11.93
2017-07-19T08:34:39.709Z,17.30
2017-07-19T08:37:06.692Z,9.43
2017-07-19T08:39:32.954Z,8.00
2017-07-19T08:41:59.338Z,7.80
2017-07-19T08:44:26.305Z,7.60
2017-07-19T08:46:52.535Z,6.90
2017-07-19T08:49:18.812Z,7.20
2017-07-19T08:51:45.040Z,6.50
2017-07-19T08:54:11.326Z,7.27
2017-07-19T08:56:39.238Z,7.40
2017-07-19T08:59:05.453Z,13.07
2017-07-19T09:01:31.679Z,11.53
2017-07-19T09:03:58.693Z,6.97
2017-07-19T09:06:24.934Z,10.80
2017-07-19T09:08:51.216Z,6.23
2017-07-19T09:11:18.238Z,10.47
2017-07-19T09:13:45.218Z,11.90
2017-07-19T09:16:11.446Z,9.27
2017-07-19T09:18:39.318Z,13.40
2017-07-19T09:21:07.004Z,14.97
2017-07-19T09:23:33.709Z,7.40
2017-07-19T09:25:59.999Z,12.33
2017-07-19T09:28:26.257Z,14.03
2017-07-19T09:30:52.469Z,5.73
2017-07-19T09:33:18.747Z,5.57
2017-07-19T09:35:45.745Z,8.03
2017-07-19T09:38:11.989Z,13.30
2017-07-19T09:40:38.812Z,9.57
2017-07-19T09:43:05.038Z,8.77
2017-07-19T09:45:32.050Z,16.03
2017-07-19T09:47:58.285Z,8.17
2017-07-19T09:50:24.516Z,15.23
2017-07-19T09:52:50.781Z,13.37
2017-07-19T09:55:17.049Z,9.40
2017-07-19T09:57:43.282Z,10.53
2017-07-19T10:00:09.517Z,6.70
2017-07-19T10:02:35.934Z,6.47
2017-07-19T10:05:02.902Z,9.53
2017-07-19T10:07:29.182Z,9.27
2017-07-19T10:09:55.396Z,9.57
2017-07-19T10:12:21.621Z,6.53
2017-07-19T10:14:47.857Z,7.67
2017-07-19T10:17:14.081Z,8.20
2017-07-19T10:19:40.328Z,8.53
2017-07-19T10:22:08.786Z,7.37
2017-07-19T10:24:48.007Z,9.47
2017-07-19T10:27:14.958Z,6.13
2017-07-19T10:29:41.933Z,6.03
2017-07-19T10:32:08.209Z,5.47
2017-07-19T10:34:34.452Z,8.93
2017-07-19T10:37:00.710Z,7.03
2017-07-19T10:39:27.727Z,9.03
2017-07-19T10:41:53.958Z,7.13
2017-07-19T10:44:20.186Z,5.03
2017-07-19T10:46:46.983Z,5.37
2017-07-19T10:49:13.952Z,8.83
2017-07-19T10:51:40.183Z,7.70
2017-07-19T10:54:06.430Z,14.60
2017-07-19T10:56:32.668Z,9.03
2017-07-19T10:58:58.953Z,8.03
2017-07-19T11:01:25.225Z,7.43
2017-07-19T11:03:51.585Z,5.57
2017-07-19T11:06:17.840Z,5.50
2017-07-19T11:08:44.157Z,14.57
2017-07-19T11:11:10.416Z,5.20
2017-07-19T11:13:36.669Z,7.13
2017-07-19T11:16:03.711Z,15.53
2017-07-19T11:18:29.941Z,9.03
2017-07-19T11:20:56.249Z,4.97
2017-07-19T11:23:23.945Z,8.50
2017-07-19T11:25:51.520Z,5.97
2017-07-19T11:28:17.729Z,4.97
2017-07-19T11:30:44.125Z,7.60
2017-07-19T11:33:11.100Z,8.00
2017-07-19T11:35:37.329Z,5.53
2017-07-19T11:38:03.561Z,8.13
2017-07-19T11:40:29.789Z,4.80
2017-07-19T11:42:56.021Z,4.43
2017-07-19T11:45:22.286Z,8.37
2017-07-19T11:47:48.538Z,6.90
2017-07-19T11:50:14.782Z,9.73
2017-07-19T11:52:41.508Z,9.80
2017-07-19T11:55:07.742Z,8.80
2017-07-19T11:57:33.970Z,5.93
2017-07-19T12:00:00.367Z,5.93
2017-07-19T12:02:27.348Z,8.17
2017-07-19T12:04:53.594Z,5.00
2017-07-19T12:07:19.831Z,11.70
2017-07-19T12:09:46.086Z,11.50
2017-07-19T12:12:12.325Z,6.93
2017-07-19T12:14:38.622Z,4.53
2017-07-19T12:17:05.101Z,4.40
2017-07-19T12:19:31.329Z,9.30
2017-07-19T12:21:57.588Z,9.70
2017-07-19T12:24:25.257Z,5.83
2017-07-19T12:26:52.412Z,10.40
2017-07-19T12:29:19.429Z,5.47
2017-07-19T12:31:45.681Z,5.43
2017-07-19T12:34:11.913Z,10.43
2017-07-19T12:36:38.998Z,4.57
2017-07-19T12:39:05.960Z,9.83
2017-07-19T12:41:32.241Z,6.70
2017-07-19T12:43:58.492Z,6.43
2017-07-19T12:46:24.720Z,5.30
2017-07-19T12:48:50.957Z,5.23
2017-07-19T12:51:17.197Z,4.93
2017-07-19T12:53:43.432Z,8.00
2017-07-19T12:56:09.668Z,8.80
2017-07-19T12:58:36.136Z,5.37
2017-07-19T13:01:02.385Z,5.67
2017-07-19T13:03:28.608Z,5.57
2017-07-19T13:05:54.874Z,4.60
2017-07-19T13:08:21.125Z,5.33
2017-07-19T13:10:47.341Z,10.53
2017-07-19T13:13:13.840Z,5.00
2017-07-19T13:15:40.816Z,8.00
2017-07-19T13:18:07.790Z,8.17
2017-07-19T13:20:34.091Z,4.23
2017-07-19T13:23:00.317Z,4.60
2017-07-19T13:25:27.925Z,5.47
2017-07-19T13:27:55.053Z,15.83
2017-07-19T13:30:21.288Z,4.17
2017-07-19T13:32:47.541Z,11.90
2017-07-19T13:35:13.965Z,5.70
2017-07-19T13:37:40.228Z,8.47
2017-07-19T13:40:06.449Z,4.73
2017-07-19T13:42:32.770Z,4.37
2017-07-19T13:44:59.006Z,6.53
2017-07-19T13:47:25.230Z,5.57
2017-07-19T13:49:51.488Z,5.10
2017-07-19T13:52:17.737Z,4.03
2017-07-19T13:54:43.957Z,7.33
2017-07-19T13:57:10.207Z,5.93
2017-07-19T13:59:36.465Z,11.80
2017-07-19T14:02:02.714Z,9.57
2017-07-19T14:04:29.384Z,4.40
2017-07-19T14:06:56.353Z,5.63
2017-07-19T14:09:22.582Z,14.97
2017-07-19T14:11:48.849Z,7.13
2017-07-19T14:14:15.082Z,5.80
2017-07-19T14:16:41.315Z,11.20
2017-07-19T14:19:07.595Z,10.57
2017-07-19T14:21:33.809Z,12.63
2017-07-19T14:24:00.040Z,11.40
2017-07-19T14:26:28.355Z,7.67
2017-07-19T14:28:56.126Z,6.60
2017-07-19T14:31:22.397Z,7.90
2017-07-19T14:33:48.677Z,7.10
2017-07-19T14:36:14.913Z,11.77
2017-07-19T14:38:41.149Z,9.23
2017-07-19T14:41:07.553Z,6.27
2017-07-19T14:43:33.781Z,6.77
2017-07-19T14:46:00.015Z,5.70
2017-07-19T14:48:26.927Z,12.80
2017-07-19T14:50:53.885Z,6.33
2017-07-19T14:53:20.866Z,8.10
2017-07-19T14:55:47.114Z,9.50
2017-07-19T14:58:13.368Z,15.30
2017-07-19T15:00:39.591Z,6.37
2017-07-19T15:03:05.827Z,5.30
2017-07-19T15:05:32.044Z,6.20
2017-07-19T15:07:58.316Z,6.47
2017-07-19T15:10:24.630Z,6.27
2017-07-19T15:12:50.860Z,7.50
2017-07-19T15:15:17.085Z,9.40
2017-07-19T15:17:43.345Z,6.70
2017-07-19T15:20:09.598Z,9.10
2017-07-19T15:22:36.571Z,6.57
2017-07-19T15:25:03.713Z,8.70
2017-07-19T15:27:31.365Z,7.80
2017-07-19T15:29:59.064Z,7.90
2017-07-19T15:32:25.341Z,6.87
2017-07-19T15:34:51.581Z,9.23
2017-07-19T15:37:17.822Z,7.00
2017-07-19T15:39:44.101Z,5.63
2017-07-19T15:42:11.061Z,6.80
2017-07-19T15:44:38.024Z,7.33
2017-07-19T15:47:04.305Z,5.83
2017-07-19T15:49:30.528Z,5.67
2017-07-19T15:51:56.792Z,6.30
2017-07-19T15:54:24.764Z,10.20
2017-07-19T15:56:51.778Z,6.00
2017-07-19T15:59:17.999Z,7.13
2017-07-19T16:01:44.390Z,7.23
2017-07-19T16:04:11.403Z,7.97
2017-07-19T16:06:37.649Z,7.73
2017-07-19T16:09:03.905Z,6.57
2017-07-19T16:11:30.171Z,5.37
2017-07-19T16:13:56.404Z,6.73
2017-07-19T16:16:23.955Z,8.97
2017-07-19T16:18:50.920Z,6.37
2017-07-19T16:21:17.178Z,9.90
2017-07-19T16:23:43.472Z,6.47
2017-07-19T16:26:10.438Z,10.60
2017-07-19T16:28:38.922Z,8.50
2017-07-19T16:31:06.081Z,5.83
2017-07-19T16:33:32.333Z,6.70
2017-07-19T16:35:58.562Z,7.00
2017-07-19T16:38:25.694Z,7.60
2017-07-19T16:40:52.649Z,6.47
2017-07-19T16:43:19.634Z,6.90
2017-07-19T16:45:45.916Z,7.83
2017-07-19T16:48:12.142Z,6.57
2017-07-19T16:50:38.362Z,7.60
2017-07-19T16:53:05.379Z,6.10
2017-07-19T16:55:31.623Z,6.00
2017-07-19T16:57:57.870Z,5.80
2017-07-19T17:00:24.334Z,6.50
2017-07-19T17:02:50.580Z,8.97
2017-07-19T17:05:17.582Z,8.00
2017-07-19T17:07:43.840Z,10.07
2017-07-19T17:10:10.915Z,10.27
2017-07-19T17:12:37.266Z,9.17
2017-07-19T17:15:04.264Z,8.03
2017-07-19T17:17:30.504Z,8.30
2017-07-19T17:19:56.765Z,13.17
2017-07-19T17:22:23.822Z,11.13
2017-07-19T17:24:50.057Z,7.40
2017-07-19T17:27:16.297Z,8.20
2017-07-19T17:29:44.202Z,8.60
2017-07-19T17:32:11.643Z,11.03
2017-07-19T17:34:38.610Z,9.27
2017-07-19T17:37:05.661Z,12.63
2017-07-19T17:39:31.913Z,7.57
2017-07-19T17:41:58.137Z,9.33
2017-07-19T17:44:24.975Z,8.77
2017-07-19T17:46:51.290Z,9.73
2017-07-19T17:49:18.282Z,7.63
2017-07-19T17:51:44.537Z,7.80
2017-07-19T17:54:10.782Z,8.47
2017-07-19T17:56:37.007Z,12.27
2017-07-19T17:59:03.244Z,7.00
2017-07-19T18:01:29.525Z,8.93
2017-07-19T18:03:56.494Z,9.03
2017-07-19T18:06:24.055Z,6.87
2017-07-19T18:08:51.033Z,6.93
2017-07-19T18:11:17.274Z,7.30
2017-07-19T18:13:43.889Z,6.80
2017-07-19T18:16:10.128Z,8.93
2017-07-19T18:18:37.123Z,6.97
2017-07-19T18:21:03.401Z,10.83
2017-07-19T18:23:30.373Z,7.10
2017-07-19T18:25:56.633Z,8.90
2017-07-19T18:28:23.033Z,9.87
2017-07-19T18:30:50.752Z,9.07
2017-07-19T18:33:17.537Z,6.20
2017-07-19T18:35:44.530Z,6.57
2017-07-19T18:38:10.777Z,10.30
2017-07-19T18:40:37.029Z,6.90
2017-07-19T18:43:03.289Z,11.93
2017-07-19T18:45:29.588Z,11.00
2017-07-19T18:47:55.825Z,9.13
2017-07-19T18:50:22.395Z,6.33
2017-07-19T18:52:48.632Z,6.23
2017-07-19T18:55:14.875Z,6.00
2017-07-19T18:57:41.926Z,9.93
2017-07-19T19:00:08.158Z,7.63
2017-07-19T19:02:35.133Z,8.50
2017-07-19T19:05:02.136Z,6.07
2017-07-19T19:07:28.407Z,6.00
2017-07-19T19:09:54.660Z,5.97
2017-07-19T19:12:21.793Z,9.17
2017-07-19T19:14:48.776Z,5.90
2017-07-19T19:17:15.012Z,6.43
2017-07-19T19:19:41.302Z,5.90
2017-07-19T19:22:08.366Z,7.40
2017-07-19T19:24:34.622Z,6.70
2017-07-19T19:27:00.947Z,10.80
2017-07-19T19:29:27.314Z,14.03
2017-07-19T19:31:56.260Z,6.80
2017-07-19T19:34:34.306Z,6.27
2017-07-19T19:37:00.569Z,17.50
2017-07-19T19:39:26.797Z,9.67
2017-07-19T19:41:53.158Z,6.60
2017-07-19T19:44:19.401Z,12.27
2017-07-19T19:46:45.618Z,6.83
2017-07-19T19:49:11.877Z,7.83
2017-07-19T19:51:38.872Z,12.43
2017-07-19T19:54:05.190Z,16.70
2017-07-19T19:56:31.646Z,13.33
2017-07-19T19:58:58.965Z,24.20
2017-07-19T20:01:25.399Z,21.17
2017-07-19T20:03:51.809Z,19.20
2017-07-19T20:06:18.436Z,18.20
2017-07-19T20:08:44.812Z,11.27
2017-07-19T20:11:11.280Z,11.00
2017-07-19T20:13:38.456Z,13.97
2017-07-19T20:16:04.853Z,10.77
2017-07-19T20:18:31.987Z,15.17
2017-07-19T20:20:59.192Z,16.10
2017-07-19T20:23:25.601Z,22.53
2017-07-19T20:25:52.050Z,15.40
2017-07-19T20:28:18.461Z,17.53
2017-07-19T20:30:44.913Z,19.50
2017-07-19T20:33:12.800Z,17.90
2017-07-19T20:35:40.079Z,18.77
2017-07-19T20:38:06.522Z,17.07
2017-07-19T20:40:32.941Z,17.33
2017-07-19T20:42:59.339Z,15.83
2017-07-19T20:45:25.832Z,23.40
2017-07-19T20:47:52.263Z,21.40
2017-07-19T20:50:18.689Z,19.97
2017-07-19T20:52:46.511Z,22.23
2017-07-19T20:55:14.276Z,23.23
2017-07-19T20:57:40.647Z,19.20
2017-07-19T21:00:07.680Z,22.03
2017-07-19T21:02:33.956Z,21.70
2017-07-19T21:05:00.201Z,24.30
2017-07-19T21:07:27.185Z,24.80
2017-07-19T21:09:53.424Z,20.40
2017-07-19T21:12:19.669Z,20.20
2017-07-19T21:14:45.906Z,25.33
2017-07-19T21:17:13.128Z,23.63
2017-07-19T21:19:40.088Z,22.20
2017-07-19T21:22:07.042Z,22.83
2017-07-19T21:24:33.293Z,27.50
2017-07-19T21:26:59.525Z,40.33
2017-07-19T21:29:25.790Z,20.53
2017-07-19T21:31:52.051Z,21.33
2017-07-19T21:34:19.718Z,21.30
2017-07-19T21:36:47.589Z,24.53
2017-07-19T21:39:14.314Z,21.40
2017-07-19T21:41:40.551Z,16.87
2017-07-19T21:44:06.846Z,18.20
2017-07-19T21:46:33.114Z,19.07
2017-07-19T21:48:59.356Z,20.97
2017-07-19T21:51:25.603Z,18.33
2017-07-19T21:53:51.833Z,18.33
2017-07-19T21:56:18.838Z,17.90
2017-07-19T21:58:52.084Z,15.03
2017-07-19T22:01:18.581Z,17.17
2017-07-19T22:03:44.820Z,16.00
2017-07-19T22:06:11.069Z,14.83
2017-07-19T22:08:37.316Z,14.50
2017-07-19T22:11:03.554Z,18.40
2017-07-19T22:13:29.776Z,17.30
2017-07-19T22:15:56.032Z,19.67
2017-07-19T22:18:22.250Z,17.73
2017-07-19T22:20:48.831Z,21.63
2017-07-19T22:23:15.868Z,27.47
2017-07-19T22:25:42.850Z,21.87
2017-07-19T22:28:09.277Z,21.97
2017-07-19T22:30:36.264Z,22.93
2017-07-19T22:33:02.492Z,22.60
2017-07-19T22:35:30.162Z,24.53
2017-07-19T22:37:57.233Z,23.67
2017-07-19T22:40:23.489Z,20.33
2017-07-19T22:42:50.258Z,20.97
2017-07-19T22:45:17.230Z,22.43
2017-07-19T22:47:43.453Z,18.23
2017-07-19T22:50:10.465Z,18.23
2017-07-19T22:52:36.710Z,26.80
2017-07-19T22:55:02.954Z,20.20
2017-07-19T22:57:29.459Z,18.47
2017-07-19T22:59:55.709Z,15.33
2017-07-19T23:02:21.948Z,13.80
2017-07-19T23:04:48.786Z,13.87
2017-07-19T23:07:15.015Z,14.77
2017-07-19T23:09:42.033Z,17.37
2017-07-19T23:12:08.289Z,14.60
2017-07-19T23:14:34.517Z,19.30
2017-07-19T23:17:00.743Z,16.80
2017-07-19T23:19:27.036Z,17.20
2017-07-19T23:21:53.281Z,19.43
2017-07-19T23:24:20.256Z,15.10
2017-07-19T23:26:48.115Z,15.90
2017-07-19T23:29:14.347Z,15.50
2017-07-19T23:31:41.309Z,17.93
2017-07-19T23:34:07.704Z,17.27
2017-07-19T23:36:34.717Z,16.90
2017-07-19T23:39:01.545Z,18.10
2017-07-19T23:41:28.553Z,19.30
2017-07-19T23:43:54.785Z,20.00
2017-07-19T23:46:21.010Z,18.10
2017-07-19T23:48:47.808Z,20.27
2017-07-19T23:51:14.765Z,21.13
2017-07-19T23:53:41.033Z,19.80
2017-07-19T23:56:07.283Z,19.37
2017-07-19T23:58:33.538Z,17.80
